Time;durP1;ratioP1;P1;durP2;ratioP2;P2;SDS_P1;SDS_P2;PMS_P1;PMS_P2;Temp;Humidity;BMP_temperature;BMP_pressure;BME280_temperature;BME280_humidity;BME280_pressure;Samples;Min_cycle;Max_cycle;Signal;HPM_P1;HPM_P2
2021/09/24 00:02:02;;;;;;;8.20;5.30;;;17.80;89.60;;;;;;5096851;28;20840;-75
2021/09/24 00:04:30;;;;;;;6.63;4.97;;;17.90;89.80;;;;;;5096796;28;20431;-75
2021/09/24 00:06:57;;;;;;;8.50;5.53;;;17.90;89.90;;;;;;5096794;28;20467;-75
2021/09/24 00:09:24;;;;;;;9.63;5.23;;;17.90;89.60;;;;;;5096823;28;20451;-75
2021/09/24 00:11:52;;;;;;;7.83;5.60;;;17.90;90.00;;;;;;5096712;28;20452;-75
2021/09/24 00:14:19;;;;;;;6.57;5.60;;;17.90;90.10;;;;;;5096326;28;20945;-75
2021/09/24 00:16:46;;;;;;;12.67;4.83;;;17.90;90.10;;;;;;5096532;28;20829;-75
2021/09/24 00:19:13;;;;;;;5.70;5.00;;;17.90;90.40;;;;;;5096246;28;20813;-75
2021/09/24 00:21:40;;;;;;;10.03;5.10;;;17.90;90.00;;;;;;5096446;28;20475;-75
2021/09/24 00:24:07;;;;;;;7.77;5.17;;;17.80;90.10;;;;;;5096464;28;20452;-75
2021/09/24 00:26:33;;;;;;;9.27;5.10;;;17.80;90.20;;;;;;5096373;28;20463;-75
2021/09/24 00:29:01;;;;;;;7.70;4.87;;;17.80;90.30;;;;;;5096357;28;20801;-75
2021/09/24 00:31:28;;;;;;;7.17;5.50;;;17.80;90.20;;;;;;5096288;28;20448;-75
2021/09/24 00:33:55;;;;;;;8.00;5.10;;;17.80;90.40;;;;;;5096353;28;20832;-75
2021/09/24 00:36:22;;;;;;;9.40;5.30;;;17.80;90.70;;;;;;5095817;28;20482;-75
2021/09/24 00:38:49;;;;;;;7.93;5.30;;;17.70;90.60;;;;;;5095842;28;20448;-75
2021/09/24 00:41:16;;;;;;;11.33;5.40;;;17.80;90.60;;;;;;5096032;28;20505;-74
2021/09/24 00:43:43;;;;;;;9.20;5.50;;;17.80;90.60;;;;;;5096105;28;20448;-74
2021/09/24 00:46:11;;;;;;;9.50;5.73;;;17.80;90.50;;;;;;5095984;28;20468;-74
2021/09/24 00:48:38;;;;;;;7.60;5.33;;;17.80;90.60;;;;;;5096027;28;20435;-75
2021/09/24 00:51:04;;;;;;;7.13;5.40;;;17.80;90.50;;;;;;5095922;28;20443;-74
2021/09/24 00:53:31;;;;;;;10.50;5.33;;;17.90;90.50;;;;;;5095922;28;20459;-74
2021/09/24 00:55:58;;;;;;;8.57;5.23;;;17.80;90.50;;;;;;5095722;28;20467;-75
2021/09/24 00:58:25;;;;;;;12.03;6.17;;;17.90;90.50;;;;;;5095786;28;20448;-74
2021/09/24 01:00:52;;;;;;;7.73;5.70;;;17.90;90.50;;;;;;5095731;28;20444;-76
2021/09/24 01:03:20;;;;;;;13.17;7.17;;;17.80;90.50;;;;;;5095756;28;20443;-74
2021/09/24 01:05:49;;;;;;;8.83;7.33;;;17.80;90.50;;;;;;5095600;28;20468;-74
2021/09/24 01:08:16;;;;;;;7.77;5.40;;;17.80;90.50;;;;;;5096032;28;20879;-74
2021/09/24 01:10:43;;;;;;;7.00;6.13;;;17.80;90.50;;;;;;5095603;28;20443;-76
2021/09/24 01:13:10;;;;;;;8.27;6.37;;;17.80;90.50;;;;;;5095491;28;20439;-75
2021/09/24 01:15:37;;;;;;;10.83;6.20;;;17.80;90.60;;;;;;5095463;28;20456;-74
2021/09/24 01:18:04;;;;;;;10.40;6.40;;;17.80;90.60;;;;;;5095432;28;20450;-74
2021/09/24 01:20:33;;;;;;;7.87;7.00;;;17.80;90.70;;;;;;5095366;28;20473;-74
2021/09/24 01:23:01;;;;;;;13.73;8.50;;;17.70;90.70;;;;;;5095308;28;20486;-75
2021/09/24 01:25:28;;;;;;;12.57;8.03;;;17.70;90.80;;;;;;5094942;28;20995;-75
2021/09/24 01:27:55;;;;;;;10.57;7.70;;;17.70;90.90;;;;;;5095237;28;20440;-75
2021/09/24 01:30:22;;;;;;;8.50;7.70;;;17.60;91.00;;;;;;5094906;28;20491;-75
2021/09/24 01:32:49;;;;;;;17.80;8.77;;;17.60;91.10;;;;;;5095113;28;20447;-73
2021/09/24 01:35:17;;;;;;;10.10;9.10;;;17.60;91.20;;;;;;5094773;28;20478;-74
2021/09/24 01:37:44;;;;;;;9.30;8.50;;;17.60;91.20;;;;;;5095049;28;20447;-76
2021/09/24 01:40:14;;;;;;;11.43;10.13;;;17.60;91.40;;;;;;5094962;28;20806;-76
2021/09/24 01:42:42;;;;;;;14.27;9.20;;;17.50;91.60;;;;;;5094910;28;20466;-74
2021/09/24 01:45:10;;;;;;;11.13;10.00;;;17.50;91.50;;;;;;5094891;28;20464;-75
2021/09/24 01:47:37;;;;;;;14.93;10.23;;;17.50;91.60;;;;;;5094499;28;20451;-75
2021/09/24 01:50:05;;;;;;;16.67;10.80;;;17.50;91.70;;;;;;5094821;28;20431;-74
2021/09/24 01:52:32;;;;;;;16.37;11.43;;;17.50;91.90;;;;;;5094789;28;20444;-74
2021/09/24 01:54:59;;;;;;;13.40;10.50;;;17.40;91.90;;;;;;5094664;28;20472;-75
2021/09/24 01:57:27;;;;;;;12.57;11.27;;;17.40;92.00;;;;;;5095290;28;20448;-74
2021/09/24 01:59:53;;;;;;;17.10;11.10;;;17.50;92.00;;;;;;5094650;28;20443;-74
2021/09/24 02:02:20;;;;;;;16.07;10.83;;;17.50;91.90;;;;;;5094237;28;20486;-74
2021/09/24 02:04:47;;;;;;;11.93;10.00;;;17.50;91.90;;;;;;5094431;28;20444;-75
2021/09/24 02:07:14;;;;;;;21.30;13.50;;;17.50;92.00;;;;;;5094051;28;20455;-75
2021/09/24 02:09:41;;;;;;;15.30;12.83;;;17.40;92.00;;;;;;5094428;28;20474;-74
2021/09/24 02:12:09;;;;;;;20.43;13.60;;;17.50;92.20;;;;;;5094423;28;20448;-74
2021/09/24 02:14:37;;;;;;;17.80;13.30;;;17.40;92.20;;;;;;5094253;28;20458;-74
2021/09/24 02:17:04;;;;;;;18.57;12.80;;;17.40;92.20;;;;;;5094368;28;20448;-74
2021/09/24 02:19:32;;;;;;;17.20;13.20;;;17.40;92.40;;;;;;5094288;28;20444;-75
2021/09/24 02:21:59;;;;;;;19.70;13.10;;;17.40;92.30;;;;;;5094142;28;20480;-75
2021/09/24 02:24:26;;;;;;;18.83;14.00;;;17.40;92.30;;;;;;5095257;28;20450;-75
2021/09/24 02:26:53;;;;;;;20.30;13.60;;;17.40;92.40;;;;;;5093769;28;20482;-75
2021/09/24 02:29:20;;;;;;;24.23;15.50;;;17.50;92.50;;;;;;5094096;28;20451;-74
2021/09/24 02:31:48;;;;;;;19.33;14.70;;;17.40;92.40;;;;;;5093724;28;20841;-76
2021/09/24 02:34:15;;;;;;;22.07;15.57;;;17.40;92.60;;;;;;5093676;28;20821;-74
2021/09/24 02:36:42;;;;;;;19.57;14.87;;;17.40;92.60;;;;;;5093556;28;20479;-75
2021/09/24 02:39:10;;;;;;;19.27;15.97;;;17.40;92.60;;;;;;5093936;28;20439;-75
2021/09/24 02:41:37;;;;;;;23.57;15.30;;;17.40;92.60;;;;;;5093865;28;20487;-74
2021/09/24 02:44:04;;;;;;;17.67;12.53;;;17.50;92.60;;;;;;5093882;28;20448;-74
2021/09/24 02:46:31;;;;;;;16.10;12.90;;;17.40;92.30;;;;;;5093861;28;20464;-74
2021/09/24 02:48:59;;;;;;;17.90;14.50;;;17.40;92.40;;;;;;5093802;28;20448;-76
2021/09/24 02:51:26;;;;;;;20.83;15.10;;;17.40;92.40;;;;;;5093843;28;20452;-76
2021/09/24 02:53:53;;;;;;;23.13;17.63;;;17.40;92.40;;;;;;5093726;28;20444;-76
2021/09/24 02:56:19;;;;;;;29.87;16.60;;;17.40;92.40;;;;;;5093686;28;20467;-76
2021/09/24 02:58:46;;;;;;;24.17;18.07;;;17.40;92.80;;;;;;5093337;28;20812;-75
2021/09/24 03:01:13;;;;;;;22.20;17.40;;;17.40;92.60;;;;;;5093612;28;20447;-76
2021/09/24 03:03:39;;;;;;;19.00;15.80;;;17.40;92.80;;;;;;5093229;28;21011;-76
2021/09/24 03:06:08;;;;;;;23.70;15.80;;;17.40;92.70;;;;;;5093528;28;20828;-76
2021/09/24 03:08:34;;;;;;;23.20;16.60;;;17.40;92.50;;;;;;5093306;28;20992;-76
2021/09/24 03:11:01;;;;;;;18.27;16.23;;;17.40;92.60;;;;;;5093540;28;20450;-76
2021/09/24 03:13:28;;;;;;;27.63;16.37;;;17.30;92.40;;;;;;5093562;28;20444;-76
2021/09/24 03:15:55;;;;;;;19.93;17.67;;;17.30;92.50;;;;;;5093172;28;20470;-76
2021/09/24 03:18:22;;;;;;;26.63;18.33;;;17.30;92.70;;;;;;5093480;28;20450;-76
2021/09/24 03:20:50;;;;;;;27.10;20.77;;;17.20;92.80;;;;;;5096658;28;20440;-76
2021/09/24 03:23:19;;;;;;;24.57;19.87;;;17.20;92.90;;;;;;5097248;28;20472;-76
2021/09/24 03:25:46;;;;;;;28.53;19.33;;;17.20;92.80;;;;;;5097191;28;20475;-76
2021/09/24 03:28:13;;;;;;;25.70;20.03;;;17.20;93.00;;;;;;5097554;28;20447;-76
2021/09/24 03:30:41;;;;;;;30.37;22.10;;;17.10;93.10;;;;;;5097154;28;20955;-76
2021/09/24 03:33:08;;;;;;;25.67;21.23;;;16.90;93.60;;;;;;5097408;28;20439;-76
2021/09/24 03:35:35;;;;;;;23.17;20.03;;;16.90;93.80;;;;;;5097133;28;20860;-76
2021/09/24 03:38:02;;;;;;;26.43;21.47;;;16.90;93.80;;;;;;5097018;28;20805;-76
2021/09/24 03:40:30;;;;;;;26.10;20.77;;;16.90;93.90;;;;;;5097357;28;20448;-74
2021/09/24 03:42:58;;;;;;;25.07;21.00;;;16.90;93.90;;;;;;5096927;28;21019;-75
2021/09/24 03:45:25;;;;;;;31.77;21.70;;;16.90;93.90;;;;;;5097207;28;20494;-75
2021/09/24 03:47:52;;;;;;;24.60;20.33;;;16.90;94.20;;;;;;5096878;28;20502;-76
2021/09/24 03:50:19;;;;;;;29.67;22.47;;;16.90;93.90;;;;;;5097624;28;20451;-75
2021/09/24 03:52:45;;;;;;;23.77;21.30;;;16.80;93.90;;;;;;5097035;28;20440;-74
2021/09/24 03:55:12;;;;;;;29.30;21.70;;;16.90;94.10;;;;;;5096893;28;20464;-74
2021/09/24 03:57:40;;;;;;;30.63;22.87;;;16.90;94.00;;;;;;5096692;28;20845;-74
2021/09/24 04:00:08;;;;;;;27.47;22.93;;;16.80;94.10;;;;;;5096579;28;20448;-75
2021/09/24 04:02:35;;;;;;;29.97;22.13;;;16.90;94.10;;;;;;5096743;28;20483;-75
2021/09/24 04:05:01;;;;;;;28.47;22.27;;;16.90;94.00;;;;;;5096761;28;20474;-75
2021/09/24 04:07:28;;;;;;;30.57;25.20;;;16.90;94.00;;;;;;5096757;28;20470;-74
2021/09/24 04:09:55;;;;;;;33.47;25.57;;;16.90;94.00;;;;;;5096654;28;20448;-74
2021/09/24 04:12:22;;;;;;;34.30;24.27;;;16.90;94.30;;;;;;5096687;28;20440;-74
2021/09/24 04:14:50;;;;;;;31.07;25.70;;;16.90;94.40;;;;;;5096582;28;20446;-74
2021/09/24 04:17:17;;;;;;;31.80;23.93;;;16.80;94.40;;;;;;5096610;28;20447;-75
2021/09/24 04:19:43;;;;;;;34.37;25.13;;;16.90;94.50;;;;;;5096239;28;20447;-74
2021/09/24 04:22:10;;;;;;;33.30;25.50;;;16.90;94.40;;;;;;5096425;28;20483;-74
2021/09/24 04:24:37;;;;;;;33.50;25.27;;;16.90;94.20;;;;;;5096097;28;20947;-77
2021/09/24 04:27:04;;;;;;;26.97;24.17;;;16.80;94.30;;;;;;5096037;28;20824;-76
2021/09/24 04:29:31;;;;;;;31.13;25.67;;;16.90;94.40;;;;;;5096009;28;20810;-76
2021/09/24 04:31:59;;;;;;;31.30;25.53;;;16.90;94.40;;;;;;5095851;28;20439;-75
2021/09/24 04:34:26;;;;;;;31.77;26.30;;;16.90;94.40;;;;;;5096330;28;20427;-75
2021/09/24 04:36:53;;;;;;;34.10;26.03;;;16.80;94.60;;;;;;5095679;28;20475;-76
2021/09/24 04:39:20;;;;;;;32.43;25.23;;;16.80;94.70;;;;;;5096204;28;20452;-75
2021/09/24 04:41:46;;;;;;;36.13;25.80;;;16.80;94.80;;;;;;5096079;28;20444;-76
2021/09/24 04:44:13;;;;;;;29.30;24.47;;;16.70;94.80;;;;;;5095972;28;20506;-76
2021/09/24 04:46:40;;;;;;;34.03;25.80;;;16.70;94.80;;;;;;5095624;28;20459;-76
2021/09/24 04:49:08;;;;;;;28.63;25.50;;;16.70;94.90;;;;;;5095672;28;20450;-75
2021/09/24 04:51:35;;;;;;;32.20;24.07;;;16.70;95.00;;;;;;5095722;28;20497;-76
2021/09/24 04:54:01;;;;;;;29.10;24.43;;;16.60;95.20;;;;;;5095688;28;20835;-75
2021/09/24 04:56:28;;;;;;;30.77;23.83;;;16.70;95.20;;;;;;5095902;28;20468;-76
2021/09/24 04:58:55;;;;;;;32.13;24.80;;;16.70;95.10;;;;;;5095910;28;20455;-77
2021/09/24 05:01:22;;;;;;;29.87;24.30;;;16.80;95.10;;;;;;5095526;28;20436;-75
2021/09/24 05:03:49;;;;;;;28.23;24.27;;;16.60;95.00;;;;;;5095654;28;20841;-75
2021/09/24 05:06:17;;;;;;;25.70;23.00;;;16.60;95.40;;;;;;5095612;28;20460;-76
2021/09/24 05:08:44;;;;;;;25.23;22.13;;;16.60;95.40;;;;;;5095497;28;20448;-74
2021/09/24 05:11:10;;;;;;;29.33;22.80;;;16.60;95.30;;;;;;5096198;28;20428;-74
2021/09/24 05:13:37;;;;;;;29.30;23.10;;;16.70;95.20;;;;;;5095651;28;20440;-77
2021/09/24 05:16:04;;;;;;;30.73;23.20;;;16.70;95.20;;;;;;5095586;28;20460;-76
2021/09/24 05:18:31;;;;;;;36.67;25.90;;;16.60;95.10;;;;;;5095532;28;20432;-77
2021/09/24 05:20:58;;;;;;;28.10;21.37;;;16.70;95.10;;;;;;5095410;28;20471;-77
2021/09/24 05:23:26;;;;;;;28.10;23.00;;;16.70;95.10;;;;;;5095375;28;20500;-76
2021/09/24 05:25:52;;;;;;;24.27;20.93;;;16.70;95.00;;;;;;5095319;28;20506;-77
2021/09/24 05:28:19;;;;;;;32.83;23.43;;;16.70;94.80;;;;;;5095378;28;20439;-76
2021/09/24 05:30:46;;;;;;;27.90;23.07;;;16.70;94.70;;;;;;5095454;28;20428;-77
2021/09/24 05:33:12;;;;;;;26.33;20.87;;;16.70;94.70;;;;;;5094906;28;20901;-77
2021/09/24 05:35:39;;;;;;;26.70;22.10;;;16.60;94.90;;;;;;5094759;28;20487;-76
2021/09/24 05:38:06;;;;;;;27.20;22.03;;;16.60;95.00;;;;;;5092194;22;20512;-70
2021/09/24 05:40:34;;;;;;;26.67;20.87;;;16.60;95.00;;;;;;5054493;28;20815;-70
2021/09/24 05:43:01;;;;;;;24.63;21.70;;;16.60;94.90;;;;;;5053818;28;20482;-70
2021/09/24 05:45:28;;;;;;;24.83;21.87;;;16.60;94.90;;;;;;5054594;28;20464;-70
2021/09/24 05:47:54;;;;;;;30.13;20.50;;;16.60;94.90;;;;;;5066433;28;20487;-70
2021/09/24 05:50:21;;;;;;;30.53;21.77;;;16.60;94.90;;;;;;5074038;28;20433;-70
2021/09/24 05:52:51;;;;;;;26.90;21.13;;;16.50;95.00;;;;;;5074207;28;20437;-70
2021/09/24 05:55:20;;;;;;;27.10;21.60;;;16.50;95.20;;;;;;5074119;28;20445;-70
2021/09/24 05:57:49;;;;;;;29.43;23.00;;;16.50;95.20;;;;;;5074942;28;20468;-70
2021/09/24 06:00:17;;;;;;;27.40;22.40;;;16.50;95.30;;;;;;5073988;28;20448;-70
2021/09/24 06:02:44;;;;;;;27.80;20.20;;;16.50;95.30;;;;;;5074265;28;20468;-70
2021/09/24 06:05:11;;;;;;;28.40;21.20;;;16.60;95.40;;;;;;5074297;28;20471;-71
2021/09/24 06:07:39;;;;;;;25.57;21.50;;;16.50;95.30;;;;;;5074222;28;20522;-71
2021/09/24 06:10:07;;;;;;;29.03;21.13;;;16.50;95.50;;;;;;5074192;28;20531;-70
2021/09/24 06:12:34;;;;;;;33.03;21.93;;;16.50;95.50;;;;;;5074107;28;20448;-70
2021/09/24 06:15:03;;;;;;;27.27;19.90;;;16.50;95.50;;;;;;5074024;28;20433;-70
2021/09/24 06:17:30;;;;;;;28.40;21.10;;;16.50;95.40;;;;;;5073954;28;20579;-70
2021/09/24 06:19:57;;;;;;;25.40;19.80;;;16.50;95.50;;;;;;5074424;28;20559;-70
2021/09/24 06:22:24;;;;;;;25.97;19.80;;;16.50;95.40;;;;;;5073817;28;20436;-70
2021/09/24 06:24:51;;;;;;;24.30;19.80;;;16.50;95.50;;;;;;5073827;28;20931;-70
2021/09/24 06:27:18;;;;;;;25.63;19.80;;;16.60;95.50;;;;;;5073759;28;20464;-70
2021/09/24 06:29:47;;;;;;;31.47;20.27;;;16.60;95.30;;;;;;5073832;28;20448;-70
2021/09/24 06:32:15;;;;;;;24.00;17.80;;;16.60;95.40;;;;;;5073879;28;20816;-70
2021/09/24 06:34:46;;;;;;;28.10;20.60;;;16.60;95.30;;;;;;5073662;28;20441;-70
2021/09/24 06:37:13;;;;;;;23.87;17.80;;;16.60;95.30;;;;;;5073345;28;20484;-70
2021/09/24 06:39:39;;;;;;;23.20;19.07;;;16.70;95.30;;;;;;5073252;28;20812;-70
2021/09/24 06:42:07;;;;;;;31.50;23.47;;;16.70;95.10;;;;;;5073252;28;20437;-70
2021/09/24 06:44:34;;;;;;;31.93;21.90;;;16.70;95.10;;;;;;5073243;28;20501;-70
2021/09/24 06:47:01;;;;;;;32.40;22.90;;;16.80;95.00;;;;;;5073543;28;20472;-70
2021/09/24 06:49:29;;;;;;;27.23;21.67;;;16.80;94.70;;;;;;5073475;28;20452;-70
2021/09/24 06:51:57;;;;;;;30.57;24.57;;;16.80;94.80;;;;;;5073588;28;20437;-70
2021/09/24 06:54:25;;;;;;;30.27;20.77;;;16.80;94.80;;;;;;5073035;28;20441;-70
2021/09/24 06:56:52;;;;;;;26.50;21.07;;;16.70;94.70;;;;;;5073137;28;20460;-71
2021/09/24 06:59:19;;;;;;;30.83;21.90;;;16.70;94.80;;;;;;5073405;28;20448;-70
2021/09/24 07:01:46;;;;;;;30.80;22.00;;;16.60;95.00;;;;;;5073083;28;20792;-70
2021/09/24 07:04:14;;;;;;;32.33;22.33;;;16.70;95.00;;;;;;5073361;28;20859;-70
2021/09/24 07:06:42;;;;;;;34.53;23.17;;;16.70;95.10;;;;;;5073324;28;20488;-71
2021/09/24 07:09:09;;;;;;;38.73;24.83;;;16.70;94.90;;;;;;5073383;28;20467;-70
2021/09/24 07:11:36;;;;;;;37.57;25.17;;;16.70;95.00;;;;;;5073481;28;20528;-71
2021/09/24 07:14:08;;;;;;;38.77;25.90;;;16.60;95.10;;;;;;5073407;28;20424;-71
2021/09/24 07:16:35;;;;;;;38.73;25.77;;;16.60;95.10;;;;;;5073015;28;20828;-71
2021/09/24 07:19:02;;;;;;;33.33;23.97;;;16.70;95.00;;;;;;5073315;28;20433;-71
2021/09/24 07:21:29;;;;;;;39.03;25.83;;;16.70;94.90;;;;;;5073369;28;20425;-71
2021/09/24 07:23:57;;;;;;;32.33;24.10;;;16.70;94.90;;;;;;5073176;28;20475;-71
2021/09/24 07:26:24;;;;;;;33.37;26.40;;;16.70;94.90;;;;;;5073221;28;20412;-71
2021/09/24 07:28:50;;;;;;;34.60;25.07;;;16.80;95.00;;;;;;5073160;28;20465;-71
2021/09/24 07:31:17;;;;;;;40.27;25.47;;;16.90;94.90;;;;;;5073208;28;20433;-71
2021/09/24 07:33:44;;;;;;;31.03;24.37;;;17.00;94.50;;;;;;5073240;28;20425;-71
2021/09/24 07:36:11;;;;;;;29.43;21.83;;;17.00;94.10;;;;;;5073261;28;20425;-70
2021/09/24 07:38:43;;;;;;;29.47;21.70;;;17.00;93.90;;;;;;5072744;28;20526;-70
2021/09/24 07:44:41;;;;;;;24.03;18.30;;;17.00;94.10;;;;;;5048066;28;20654;-69
2021/09/24 07:47:08;;;;;;;26.60;20.20;;;16.90;94.10;;;;;;5073081;28;20469;-69
2021/09/24 07:49:35;;;;;;;26.53;19.40;;;16.90;94.20;;;;;;5072779;28;20456;-70
2021/09/24 07:52:02;;;;;;;26.97;19.83;;;17.00;94.20;;;;;;5072732;28;20918;-69
2021/09/24 07:54:28;;;;;;;23.77;18.73;;;17.00;94.10;;;;;;5073068;28;20437;-69
2021/09/24 07:56:55;;;;;;;28.20;18.50;;;17.10;94.10;;;;;;5072915;28;20471;-69
2021/09/24 07:59:22;;;;;;;25.40;18.93;;;17.10;94.10;;;;;;5073425;28;20819;-69
2021/09/24 08:01:50;;;;;;;27.97;18.83;;;17.20;94.00;;;;;;5072994;28;20850;-69
2021/09/24 08:04:17;;;;;;;29.63;19.30;;;17.20;93.80;;;;;;5073494;28;20469;-69
2021/09/24 08:06:44;;;;;;;28.30;19.97;;;17.20;93.60;;;;;;5075429;28;20429;-70
2021/09/24 08:09:10;;;;;;;27.50;19.40;;;17.10;93.90;;;;;;5076483;28;20464;-69
2021/09/24 08:11:37;;;;;;;28.73;18.73;;;17.20;94.20;;;;;;5076388;28;20460;-69
2021/09/24 08:14:04;;;;;;;23.70;18.30;;;17.20;94.20;;;;;;5076499;28;20425;-69
2021/09/24 08:16:31;;;;;;;21.40;17.00;;;17.30;94.10;;;;;;5076033;28;20984;-70
2021/09/24 08:18:59;;;;;;;20.47;16.77;;;17.40;93.70;;;;;;5076320;28;20452;-70
2021/09/24 08:21:26;;;;;;;19.07;16.10;;;17.40;93.90;;;;;;5076407;28;20448;-73
2021/09/24 08:23:53;;;;;;;20.47;14.97;;;17.40;93.60;;;;;;5076465;28;20461;-69
2021/09/24 08:26:21;;;;;;;23.40;15.33;;;17.50;93.60;;;;;;5076225;28;20432;-69
2021/09/24 08:28:47;;;;;;;16.37;13.57;;;17.70;93.70;;;;;;5076257;28;20460;-70
2021/09/24 08:31:14;;;;;;;15.47;12.73;;;17.70;92.60;;;;;;5075875;28;20467;-71
2021/09/24 08:33:41;;;;;;;14.27;11.97;;;17.80;92.20;;;;;;5076146;28;20429;-71
2021/09/24 08:36:10;;;;;;;15.80;11.80;;;18.00;92.30;;;;;;5075770;28;20968;-70
2021/09/24 08:38:37;;;;;;;17.57;11.93;;;18.10;91.90;;;;;;5075764;28;20472;-71
2021/09/24 08:41:04;;;;;;;13.93;11.50;;;18.30;91.90;;;;;;5076122;28;20429;-71
2021/09/24 08:43:31;;;;;;;19.57;11.30;;;18.40;91.20;;;;;;5076068;28;20444;-71
2021/09/24 08:45:58;;;;;;;11.23;9.97;;;18.50;90.40;;;;;;5076123;28;20433;-72
2021/09/24 08:48:25;;;;;;;17.73;10.93;;;18.70;89.90;;;;;;5075954;28;20475;-71
2021/09/24 08:50:52;;;;;;;13.23;9.70;;;18.90;89.60;;;;;;5075885;28;20432;-71
2021/09/24 08:53:21;;;;;;;14.07;10.80;;;19.00;89.50;;;;;;5075415;28;20429;-71
2021/09/24 08:55:49;;;;;;;13.67;10.23;;;19.10;88.70;;;;;;5075667;28;20539;-71
2021/09/24 08:58:16;;;;;;;12.30;10.90;;;19.20;89.70;;;;;;5075652;28;20456;-71
2021/09/24 09:00:44;;;;;;;12.13;9.27;;;19.40;88.10;;;;;;5075209;28;20440;-72
2021/09/24 09:03:13;;;;;;;13.77;10.30;;;19.50;86.80;;;;;;5075560;28;20429;-72
2021/09/24 09:05:42;;;;;;;11.33;8.07;;;19.60;86.10;;;;;;5075764;28;20481;-71
2021/09/24 09:08:15;;;;;;;16.50;9.00;;;19.60;84.20;;;;;;5075351;28;20469;-72
2021/09/24 09:10:47;;;;;;;11.23;9.37;;;19.50;85.10;;;;;;5075421;28;20452;-72
2021/09/24 09:13:15;;;;;;;12.07;9.70;;;19.50;84.20;;;;;;5075454;28;20532;-72
2021/09/24 09:15:52;;;;;;;12.17;8.70;;;19.60;84.40;;;;;;5075308;28;20425;-72
2021/09/24 09:18:19;;;;;;;14.20;10.07;;;19.50;84.80;;;;;;5074034;28;20459;-71
2021/09/24 09:20:48;;;;;;;11.60;9.00;;;19.40;85.70;;;;;;5075222;28;20441;-71
2021/09/24 09:23:15;;;;;;;11.70;9.27;;;19.50;85.00;;;;;;5076113;28;20452;-69
2021/09/24 09:25:45;;;;;;;14.87;11.13;;;19.70;86.10;;;;;;5075206;28;20469;-71
2021/09/24 09:28:14;;;;;;;17.67;11.00;;;19.70;82.90;;;;;;5075161;28;20464;-70
2021/09/24 09:30:43;;;;;;;12.97;10.43;;;19.80;82.40;;;;;;5075769;28;20429;-70
2021/09/24 09:33:15;;;;;;;13.47;11.27;;;19.90;83.70;;;;;;5074661;28;20452;-70
2021/09/24 09:35:43;;;;;;;17.90;10.33;;;19.90;83.10;;;;;;5074924;28;20776;-70
2021/09/24 09:38:17;;;;;;;15.50;10.37;;;19.90;84.00;;;;;;5074429;28;20481;-71
2021/09/24 09:40:46;;;;;;;18.93;11.30;;;20.20;83.60;;;;;;5074723;28;20448;-70
2021/09/24 09:43:20;;;;;;;10.90;9.73;;;20.30;81.30;;;;;;5074764;28;20428;-71
2021/09/24 09:45:48;;;;;;;12.43;10.37;;;20.30;80.30;;;;;;5074721;28;20465;-70
2021/09/24 09:48:15;;;;;;;14.60;11.13;;;20.40;80.40;;;;;;5074605;28;20508;-70
2021/09/24 09:50:44;;;;;;;11.63;10.40;;;20.30;79.30;;;;;;5074617;28;20432;-70
2021/09/24 09:53:15;;;;;;;17.30;11.87;;;20.20;80.90;;;;;;5075402;28;20437;-71
2021/09/24 09:55:43;;;;;;;16.93;10.53;;;20.40;81.70;;;;;;5074560;28;20794;-70
2021/09/24 09:58:12;;;;;;;16.50;10.33;;;20.50;80.60;;;;;;5074468;28;20468;-70
2021/09/24 10:01:04;;;;;;;16.13;12.07;;;20.60;81.30;;;;;;5074370;28;20428;-70
2021/09/24 10:03:35;;;;;;;12.67;10.80;;;20.60;79.40;;;;;;5074421;28;20806;-70
2021/09/24 10:06:04;;;;;;;13.83;11.00;;;20.60;78.90;;;;;;5073851;28;21004;-70
2021/09/24 10:08:32;;;;;;;12.40;9.73;;;20.60;78.30;;;;;;5074206;28;20522;-70
2021/09/24 10:11:06;;;;;;;12.73;10.40;;;20.80;79.20;;;;;;5074252;28;20430;-71
2021/09/24 10:13:36;;;;;;;13.70;10.60;;;20.90;76.30;;;;;;5073910;28;20902;-71
2021/09/24 10:16:04;;;;;;;14.23;10.57;;;21.20;76.00;;;;;;5074091;28;20436;-71
2021/09/24 10:18:33;;;;;;;16.63;9.50;;;21.40;73.80;;;;;;5074062;28;20483;-71
2021/09/24 10:21:00;;;;;;;13.67;10.30;;;21.80;73.40;;;;;;5074146;28;20433;-71
2021/09/24 10:23:26;;;;;;;11.83;9.70;;;22.10;70.80;;;;;;5073764;28;20917;-71
2021/09/24 10:25:59;;;;;;;11.53;10.20;;;22.50;71.60;;;;;;5073895;28;20480;-71
2021/09/24 10:28:32;;;;;;;11.40;10.20;;;22.50;70.10;;;;;;5073534;28;20468;-71
2021/09/24 10:31:02;;;;;;;14.37;9.47;;;22.40;69.50;;;;;;5073861;28;20425;-71
2021/09/24 10:33:52;;;;;;;10.63;9.00;;;22.00;69.40;;;;;;5073901;28;20429;-71
2021/09/24 10:36:46;;;;;;;9.80;8.07;;;22.10;71.70;;;;;;5073502;28;20444;-71
2021/09/24 10:39:43;;;;;;;10.60;7.93;;;22.20;70.20;;;;;;5073833;28;20428;-71
2021/09/24 10:42:40;;;;;;;9.70;8.60;;;22.00;69.90;;;;;;5012888;28;20905;-71
2021/09/24 10:45:17;;;;;;;14.23;7.67;;;21.70;70.10;;;;;;5071897;28;20492;-71
2021/09/24 10:47:49;;;;;;;9.23;7.00;;;21.60;71.30;;;;;;5073367;28;21012;-71
2021/09/24 10:50:53;;;;;;;9.97;7.53;;;21.70;70.40;;;;;;5073795;28;20448;-71
2021/09/24 10:53:23;;;;;;;8.93;6.60;;;22.00;68.90;;;;;;5011580;28;20447;-71
2021/09/24 10:56:28;;;;;;;9.23;6.87;;;21.90;69.90;;;;;;5011757;28;20448;-71
2021/09/24 10:58:58;;;;;;;8.03;6.83;;;21.80;70.20;;;;;;5058217;28;20456;-71
2021/09/24 11:01:33;;;;;;;9.03;7.03;;;21.70;71.40;;;;;;5073792;28;20469;-71
2021/09/24 11:04:10;;;;;;;7.50;6.43;;;21.60;71.90;;;;;;5073082;28;20816;-71
2021/09/24 11:06:39;;;;;;;8.00;6.00;;;21.50;73.40;;;;;;5073463;28;20788;-71
2021/09/24 11:09:07;;;;;;;5.93;5.30;;;21.50;73.40;;;;;;5073436;28;20805;-71
2021/09/24 11:11:36;;;;;;;6.90;5.70;;;21.60;70.60;;;;;;5073063;28;20436;-71
2021/09/24 11:14:26;;;;;;;8.03;6.30;;;21.60;70.80;;;;;;5073529;28;20432;-71
2021/09/24 11:16:54;;;;;;;6.43;5.27;;;21.60;70.80;;;;;;5073339;28;20449;-71
2021/09/24 11:19:32;;;;;;;8.20;5.80;;;21.70;70.80;;;;;;5073582;28;20434;-70
2021/09/24 11:22:09;;;;;;;5.80;4.20;;;21.70;70.50;;;;;;5073350;28;20443;-70
2021/09/24 11:24:39;;;;;;;6.77;4.30;;;22.00;69.40;;;;;;5073226;28;20474;-70
2021/09/24 11:27:09;;;;;;;4.87;4.30;;;22.20;67.00;;;;;;5073938;28;20456;-70
2021/09/24 11:29:41;;;;;;;5.77;4.93;;;22.40;67.30;;;;;;5073317;28;20856;-70
2021/09/24 11:32:11;;;;;;;7.40;4.13;;;22.50;67.40;;;;;;5073343;28;20436;-70
2021/09/24 11:34:59;;;;;;;5.20;4.07;;;22.80;66.50;;;;;;5073248;28;20429;-70
2021/09/24 11:37:27;;;;;;;5.30;4.80;;;23.20;67.60;;;;;;5068214;28;20494;-71
2021/09/24 11:40:00;;;;;;;4.43;3.60;;;23.90;63.20;;;;;;5073250;28;20437;-70
2021/09/24 11:42:30;;;;;;;6.33;5.30;;;24.10;60.80;;;;;;5077340;28;20444;-72
2021/09/24 11:45:00;;;;;;;8.17;4.57;;;24.20;60.00;;;;;;5076926;28;20575;-72
2021/09/24 11:47:29;;;;;;;6.23;4.40;;;24.30;59.30;;;;;;5100420;22;20490;-75
2021/09/24 11:49:58;;;;;;;5.40;4.90;;;24.00;59.50;;;;;;5076600;28;20815;-74
2021/09/24 11:52:35;;;;;;;5.00;4.50;;;23.60;60.50;;;;;;5076852;28;20424;-74
2021/09/24 11:55:14;;;;;;;7.37;4.37;;;23.20;62.20;;;;;;5076824;28;20429;-74
2021/09/24 11:57:41;;;;;;;5.90;3.90;;;23.00;64.70;;;;;;5082244;28;20464;-74
2021/09/24 12:00:11;;;;;;;5.03;4.00;;;22.80;66.00;;;;;;5096960;28;20427;-74
2021/09/24 12:02:37;;;;;;;3.20;2.93;;;22.80;65.30;;;;;;5096931;28;20447;-74
2021/09/24 12:05:05;;;;;;;6.10;3.97;;;22.60;64.80;;;;;;5096946;28;20517;-74
2021/09/24 12:07:32;;;;;;;6.97;4.10;;;22.60;65.60;;;;;;5097007;28;20460;-74
2021/09/24 12:10:00;;;;;;;9.60;4.10;;;22.50;65.90;;;;;;5096748;28;20803;-74
2021/09/24 12:12:28;;;;;;;3.80;3.40;;;22.60;66.60;;;;;;5096744;28;20446;-74
2021/09/24 12:14:56;;;;;;;9.07;3.63;;;22.60;66.30;;;;;;5096662;28;20812;-74
2021/09/24 12:17:26;;;;;;;9.23;4.37;;;22.50;66.90;;;;;;5096581;28;20459;-74
2021/09/24 12:19:53;;;;;;;4.50;3.63;;;22.30;66.70;;;;;;5096643;28;20444;-75
2021/09/24 12:22:20;;;;;;;5.53;3.47;;;22.30;67.80;;;;;;5096510;28;20454;-75
2021/09/24 12:24:47;;;;;;;4.63;4.13;;;22.40;68.20;;;;;;5096416;28;20479;-75
2021/09/24 12:27:19;;;;;;;7.30;3.27;;;22.70;68.00;;;;;;5096379;28;20952;-75
2021/09/24 12:29:47;;;;;;;4.03;3.63;;;22.90;66.30;;;;;;5096133;28;20917;-75
2021/09/24 12:32:16;;;;;;;4.20;3.80;;;23.00;64.90;;;;;;5096051;28;20950;-75
2021/09/24 12:34:46;;;;;;;7.53;3.47;;;23.00;64.50;;;;;;5096074;28;20440;-75
2021/09/24 12:37:14;;;;;;;4.80;3.70;;;22.90;64.30;;;;;;5096175;28;20431;-75
2021/09/24 12:39:43;;;;;;;3.43;3.10;;;23.10;62.80;;;;;;5096259;28;20804;-75
2021/09/24 12:42:12;;;;;;;4.20;3.33;;;23.90;59.30;;;;;;5095890;28;20986;-74
2021/09/24 12:44:53;;;;;;;3.83;3.53;;;24.20;57.70;;;;;;5096059;28;20428;-76